createdAt,value
2023-05-12T00:01:07.956Z,11.75
2023-05-12T00:03:34.653Z,9.90
2023-05-12T00:06:03.644Z,10.38
2023-05-12T00:08:31.142Z,9.37
2023-05-12T00:10:57.839Z,9.40
2023-05-12T00:13:24.816Z,10.18
2023-05-12T00:15:51.533Z,11.27
2023-05-12T00:18:18.153Z,8.90
2023-05-12T00:20:44.712Z,7.73
2023-05-12T00:23:11.461Z,8.13
2023-05-12T00:25:37.978Z,8.05
2023-05-12T00:28:04.588Z,7.95
2023-05-12T00:30:31.166Z,8.52
2023-05-12T00:32:58.752Z,6.87
2023-05-12T00:35:25.452Z,7.35
2023-05-12T00:37:51.961Z,7.82
2023-05-12T00:40:18.795Z,7.03
2023-05-12T00:42:45.592Z,7.55
2023-05-12T00:45:12.078Z,6.97
2023-05-12T00:47:39.357Z,8.40
2023-05-12T00:50:06.763Z,9.60
2023-05-12T00:52:33.505Z,8.93
2023-05-12T00:55:00.942Z,8.95
2023-05-12T00:57:30.501Z,8.53
2023-05-12T00:59:57.605Z,8.35
2023-05-12T01:02:24.868Z,9.25
2023-05-12T01:04:51.725Z,12.98
2023-05-12T01:07:21.564Z,12.68
2023-05-12T01:09:53.326Z,11.17
2023-05-12T01:12:21.420Z,8.60
2023-05-12T01:14:48.587Z,9.73
2023-05-12T01:17:21.186Z,11.55
2023-05-12T01:19:54.387Z,12.15
2023-05-12T01:22:21.190Z,11.80
2023-05-12T01:24:51.675Z,14.82
2023-05-12T01:27:21.166Z,12.88
2023-05-12T01:29:49.091Z,13.85
2023-05-12T01:32:18.337Z,14.45
2023-05-12T01:34:45.261Z,13.07
2023-05-12T01:37:12.627Z,12.85
2023-05-12T01:39:40.100Z,17.98
2023-05-12T01:42:08.588Z,18.17
2023-05-12T01:44:35.142Z,16.00
2023-05-12T01:47:02.045Z,18.80
2023-05-12T01:49:30.510Z,20.60
2023-05-12T01:51:57.405Z,18.83
2023-05-12T01:54:29.260Z,19.15
2023-05-12T01:56:55.866Z,21.73
2023-05-12T01:59:22.511Z,20.77
2023-05-12T02:01:49.339Z,24.65
2023-05-12T02:04:21.812Z,23.77
2023-05-12T02:06:49.420Z,23.13
2023-05-12T02:09:16.146Z,20.65
2023-05-12T02:11:43.291Z,21.63
2023-05-12T02:14:10.079Z,28.00
2023-05-12T02:16:37.284Z,25.42
2023-05-12T02:19:04.384Z,21.63
2023-05-12T02:21:32.805Z,26.33
2023-05-12T02:23:59.639Z,24.37
2023-05-12T02:26:26.208Z,27.45
2023-05-12T02:28:53.578Z,28.38
2023-05-12T02:31:21.137Z,23.83
2023-05-12T02:33:48.463Z,24.38
2023-05-12T02:36:15.026Z,26.57
2023-05-12T02:38:42.016Z,26.85
2023-05-12T02:41:08.611Z,29.77
2023-05-12T02:43:35.453Z,36.85
2023-05-12T02:46:02.348Z,30.77
2023-05-12T02:48:29.266Z,33.17
2023-05-12T02:50:55.953Z,29.48
2023-05-12T02:53:23.208Z,30.05
2023-05-12T02:55:49.854Z,45.47
2023-05-12T02:58:16.453Z,30.30
2023-05-12T03:00:42.987Z,30.00
2023-05-12T03:03:09.755Z,32.47
2023-05-12T03:05:36.444Z,33.08
2023-05-12T03:08:03.009Z,36.90
2023-05-12T03:10:29.601Z,39.17
2023-05-12T03:12:56.122Z,38.80
2023-05-12T03:15:22.955Z,43.47
2023-05-12T03:17:49.526Z,40.67
2023-05-12T03:20:17.768Z,40.60
2023-05-12T03:22:44.493Z,45.50
2023-05-12T03:25:11.630Z,45.43
2023-05-12T03:27:38.182Z,39.33
2023-05-12T03:30:05.648Z,46.00
2023-05-12T03:32:35.616Z,54.05
2023-05-12T03:35:02.312Z,32.45
2023-05-12T03:37:28.940Z,54.50
2023-05-12T03:39:56.279Z,45.80
2023-05-12T03:42:26.097Z,38.92
2023-05-12T03:44:52.806Z,53.92
2023-05-12T03:47:19.748Z,39.00
2023-05-12T03:49:46.527Z,54.70
2023-05-12T03:52:13.135Z,45.00
2023-05-12T03:54:39.665Z,42.95
2023-05-12T03:57:06.674Z,49.78
2023-05-12T03:59:33.287Z,44.63
2023-05-12T04:01:59.926Z,58.13
2023-05-12T04:04:26.610Z,43.15
2023-05-12T04:06:53.204Z,52.60
2023-05-12T04:09:21.282Z,44.38
2023-05-12T04:11:47.876Z,52.25
2023-05-12T04:14:14.420Z,44.73
2023-05-12T04:16:41.393Z,52.58
2023-05-12T04:19:08.176Z,45.97
2023-05-12T04:21:35.695Z,54.72
2023-05-12T04:24:02.260Z,49.72
2023-05-12T04:26:32.923Z,57.97
2023-05-12T04:28:59.435Z,48.20
2023-05-12T04:31:26.255Z,49.75
2023-05-12T04:33:55.887Z,52.88
2023-05-12T04:36:23.913Z,63.88
2023-05-12T04:38:51.508Z,55.70
2023-05-12T04:41:18.263Z,55.53
2023-05-12T04:46:14.571Z,46.30
2023-05-12T04:48:43.117Z,49.67
2023-05-12T04:51:09.697Z,42.77
2023-05-12T04:53:36.744Z,54.72
2023-05-12T04:56:03.571Z,53.80
2023-05-12T04:58:35.118Z,54.25
2023-05-12T05:01:02.338Z,53.80
2023-05-12T05:03:29.088Z,52.70
2023-05-12T05:05:55.857Z,51.55
2023-05-12T05:08:22.848Z,49.13
2023-05-12T05:10:49.409Z,52.97
2023-05-12T05:13:16.546Z,58.53
2023-05-12T05:15:53.353Z,54.43
2023-05-12T05:18:23.831Z,52.47
2023-05-12T05:20:57.786Z,53.13
2023-05-12T05:23:25.861Z,46.42
2023-05-12T05:25:52.861Z,54.45
2023-05-12T05:28:19.707Z,51.73
2023-05-12T05:30:46.460Z,39.92
2023-05-12T05:33:14.241Z,50.53
2023-05-12T05:35:41.932Z,46.13
2023-05-12T05:38:09.840Z,47.00
2023-05-12T05:40:51.450Z,43.77
2023-05-12T05:43:19.385Z,47.00
2023-05-12T05:45:45.988Z,52.90
2023-05-12T05:48:12.682Z,46.95
2023-05-12T05:50:39.324Z,42.33
2023-05-12T05:53:06.671Z,48.03
2023-05-12T05:55:33.349Z,47.20
2023-05-12T05:58:00.816Z,48.70
2023-05-12T06:00:27.447Z,42.58
2023-05-12T06:02:54.871Z,39.38
2023-05-12T06:05:22.445Z,43.00
2023-05-12T06:07:49.313Z,45.83
2023-05-12T06:10:15.813Z,42.55
2023-05-12T06:12:43.416Z,41.97
2023-05-12T06:15:10.515Z,52.33
2023-05-12T06:17:37.146Z,42.00
2023-05-12T06:20:05.309Z,40.85
2023-05-12T06:22:33.081Z,42.40
2023-05-12T06:24:59.583Z,41.92
2023-05-12T06:27:26.235Z,46.15
2023-05-12T06:29:52.846Z,45.27
2023-05-12T06:32:19.509Z,41.50
2023-05-12T06:34:46.079Z,41.92
2023-05-12T06:37:12.683Z,35.55
2023-05-12T06:39:39.285Z,36.03
2023-05-12T06:42:06.099Z,36.00
2023-05-12T06:44:42.116Z,35.97
2023-05-12T06:47:09.405Z,36.75
2023-05-12T06:49:37.159Z,32.95
2023-05-12T06:52:05.312Z,37.65
2023-05-12T06:54:31.896Z,37.70
2023-05-12T06:56:58.476Z,34.60
2023-05-12T06:59:25.071Z,35.85
2023-05-12T07:01:51.850Z,36.67
2023-05-12T07:04:18.406Z,39.20
2023-05-12T07:06:44.928Z,38.73
2023-05-12T07:09:11.431Z,37.08
2023-05-12T07:11:38.032Z,34.92
2023-05-12T07:14:04.585Z,29.58
2023-05-12T07:16:32.407Z,31.48
2023-05-12T07:18:58.987Z,37.30
2023-05-12T07:21:25.533Z,32.03
2023-05-12T07:23:52.290Z,31.73
2023-05-12T07:26:19.311Z,29.80
2023-05-12T07:28:45.945Z,31.15
2023-05-12T07:31:12.480Z,30.13
2023-05-12T07:33:39.023Z,25.38
2023-05-12T07:36:05.937Z,26.23
2023-05-12T07:38:32.725Z,26.67
2023-05-12T07:41:00.340Z,26.00
2023-05-12T07:43:26.901Z,24.03
2023-05-12T07:45:54.660Z,25.35
2023-05-12T07:48:21.223Z,23.40
2023-05-12T07:50:47.849Z,23.60
2023-05-12T07:53:14.375Z,21.98
2023-05-12T07:55:43.088Z,22.07
2023-05-12T07:58:10.079Z,23.60
2023-05-12T08:00:36.982Z,22.40
2023-05-12T08:03:04.385Z,23.77
2023-05-12T08:05:31.110Z,24.45
2023-05-12T08:07:57.669Z,20.77
2023-05-12T08:10:29.307Z,19.48
2023-05-12T08:12:56.047Z,20.58
2023-05-12T08:15:22.846Z,21.10
2023-05-12T08:17:49.521Z,20.23
2023-05-12T08:20:16.041Z,20.07
2023-05-12T08:22:42.690Z,23.02
2023-05-12T08:25:11.675Z,19.17
2023-05-12T08:27:38.982Z,19.15
2023-05-12T08:30:06.103Z,18.08
2023-05-12T08:32:32.616Z,18.90
2023-05-12T08:35:00.617Z,18.70
2023-05-12T08:37:27.221Z,19.80
2023-05-12T08:39:53.743Z,19.77
2023-05-12T08:42:43.295Z,17.48
2023-05-12T08:45:11.222Z,19.17
2023-05-12T08:47:38.245Z,16.25
2023-05-12T08:50:05.627Z,15.38
2023-05-12T08:52:33.976Z,16.52
2023-05-12T08:55:03.274Z,15.57
2023-05-12T08:57:31.147Z,16.40
2023-05-12T09:00:01.494Z,14.55
2023-05-12T09:02:37.663Z,16.27
2023-05-12T09:05:09.313Z,14.05
2023-05-12T09:07:39.679Z,15.57
2023-05-12T09:10:17.163Z,14.77
2023-05-12T09:12:54.428Z,13.52
2023-05-12T09:15:29.509Z,13.30
2023-05-12T09:17:56.464Z,11.40
2023-05-12T09:20:31.487Z,10.45
2023-05-12T09:23:00.054Z,11.40
2023-05-12T09:25:26.563Z,11.77
2023-05-12T09:27:59.152Z,11.45
2023-05-12T09:30:31.448Z,9.98
2023-05-12T09:33:08.226Z,10.48
2023-05-12T09:35:41.595Z,10.77
2023-05-12T09:38:10.405Z,11.32
2023-05-12T09:40:37.512Z,9.77
2023-05-12T09:43:07.903Z,10.60
2023-05-12T09:45:38.959Z,9.13
2023-05-12T09:48:14.026Z,9.07
2023-05-12T09:50:48.940Z,10.52
2023-05-12T09:53:17.755Z,11.48
2023-05-12T09:55:47.992Z,8.07
2023-05-12T09:58:19.773Z,10.48
2023-05-12T10:03:18.509Z,10.48
2023-05-12T10:05:57.485Z,10.65
2023-05-12T10:08:33.992Z,12.80
2023-05-12T10:11:04.260Z,9.40
2023-05-12T10:13:32.138Z,9.23
2023-05-12T10:15:59.658Z,8.68
2023-05-12T10:18:26.327Z,8.95
2023-05-12T10:20:56.126Z,8.95
2023-05-12T10:23:23.290Z,10.32
2023-05-12T10:25:49.824Z,11.33
2023-05-12T10:28:16.785Z,8.52
2023-05-12T10:30:44.502Z,10.63
2023-05-12T10:33:11.612Z,9.20
2023-05-12T10:35:39.834Z,8.50
2023-05-12T10:38:16.501Z,7.90
2023-05-12T10:40:55.203Z,7.22
2023-05-12T10:43:26.794Z,7.22
2023-05-12T10:46:18.988Z,7.72
2023-05-12T10:49:07.970Z,7.47
2023-05-12T10:52:01.659Z,6.40
2023-05-12T10:54:28.233Z,7.55
2023-05-12T10:56:59.004Z,6.45
2023-05-12T10:59:29.540Z,6.85
2023-05-12T11:02:06.611Z,5.90
2023-05-12T11:04:46.705Z,6.83
2023-05-12T11:07:16.710Z,7.25
2023-05-12T11:09:56.844Z,6.50
2023-05-12T11:12:33.065Z,5.90
2023-05-12T11:15:01.430Z,4.30
2023-05-12T11:17:28.092Z,4.90
2023-05-12T11:19:55.461Z,6.03
2023-05-12T11:22:23.429Z,5.70
2023-05-12T11:24:52.419Z,5.40
2023-05-12T11:27:20.639Z,6.47
2023-05-12T11:29:57.007Z,5.77
2023-05-12T11:32:23.580Z,6.32
2023-05-12T11:34:50.185Z,5.65
2023-05-12T11:37:20.828Z,6.60
2023-05-12T11:39:47.389Z,6.85
2023-05-12T11:42:15.120Z,7.10
2023-05-12T11:44:48.094Z,7.65
2023-05-12T11:47:16.020Z,7.50
2023-05-12T11:49:52.984Z,6.80
2023-05-12T11:52:21.602Z,7.13
2023-05-12T11:54:51.461Z,9.57
2023-05-12T11:57:31.796Z,8.23
2023-05-12T12:00:03.800Z,8.43
2023-05-12T12:02:33.343Z,7.30
2023-05-12T12:05:00.070Z,8.00
2023-05-12T12:07:34.233Z,6.53
2023-05-12T12:10:17.321Z,7.47
2023-05-12T12:12:44.761Z,7.35
2023-05-12T12:15:11.965Z,7.72
2023-05-12T12:17:39.920Z,7.18
2023-05-12T12:20:08.140Z,10.03
2023-05-12T12:22:35.253Z,9.68
2023-05-12T12:25:03.086Z,11.38
2023-05-12T12:27:29.778Z,7.63
2023-05-12T12:29:56.299Z,8.07
2023-05-12T12:32:22.821Z,7.77
2023-05-12T12:34:49.548Z,10.10
2023-05-12T12:37:16.253Z,7.30
2023-05-12T12:39:44.305Z,8.32
2023-05-12T12:42:10.831Z,11.52
2023-05-12T12:44:37.313Z,19.87
2023-05-12T12:47:04.376Z,10.70
2023-05-12T12:49:30.995Z,9.40
2023-05-12T12:51:57.597Z,9.48
2023-05-12T12:54:26.965Z,9.63
2023-05-12T12:56:55.458Z,10.77
2023-05-12T12:59:22.109Z,10.82
2023-05-12T13:01:48.815Z,8.32
2023-05-12T13:04:15.409Z,8.13
2023-05-12T13:06:41.950Z,9.00
2023-05-12T13:09:09.098Z,8.73
2023-05-12T13:11:35.630Z,8.38
2023-05-12T13:14:02.458Z,11.40
2023-05-12T13:16:30.027Z,9.98
2023-05-12T13:18:56.621Z,9.63
2023-05-12T13:21:23.236Z,11.40
2023-05-12T13:23:49.755Z,10.95
2023-05-12T13:26:16.288Z,7.50
2023-05-12T13:28:43.166Z,9.55
2023-05-12T13:31:09.726Z,9.20
2023-05-12T13:33:36.310Z,8.20
2023-05-12T13:36:03.203Z,8.10
2023-05-12T13:38:30.813Z,10.50
2023-05-12T13:40:57.361Z,7.75
2023-05-12T13:43:23.948Z,6.20
2023-05-12T13:45:50.987Z,7.50
2023-05-12T13:48:17.505Z,6.00
2023-05-12T13:50:44.089Z,7.43
2023-05-12T13:53:12.524Z,6.45
2023-05-12T13:55:40.845Z,6.53
2023-05-12T13:58:07.695Z,7.13
2023-05-12T14:00:34.183Z,5.43
2023-05-12T14:03:00.811Z,9.82
2023-05-12T14:05:27.518Z,6.38
2023-05-12T14:07:54.320Z,6.32
2023-05-12T14:10:20.911Z,8.40
2023-05-12T14:12:47.954Z,6.07
2023-05-12T14:15:26.623Z,4.85
2023-05-12T14:18:01.010Z,5.32
2023-05-12T14:20:27.571Z,5.75
2023-05-12T14:22:54.149Z,6.43
2023-05-12T14:25:21.017Z,5.20
2023-05-12T14:27:47.788Z,5.72
2023-05-12T14:30:14.586Z,7.40
2023-05-12T14:32:41.242Z,7.80
2023-05-12T14:35:09.492Z,11.93
2023-05-12T14:37:36.314Z,9.05
2023-05-12T14:40:02.979Z,7.82
2023-05-12T14:42:30.381Z,8.57
2023-05-12T14:44:57.101Z,8.77
2023-05-12T14:47:23.897Z,7.97
2023-05-12T14:49:50.552Z,10.98
2023-05-12T14:52:17.094Z,8.77
2023-05-12T14:54:43.641Z,8.30
2023-05-12T14:57:10.589Z,9.00
2023-05-12T14:59:37.203Z,10.37
2023-05-12T15:02:03.718Z,9.93
2023-05-12T15:04:30.736Z,9.27
2023-05-12T15:06:57.245Z,9.05
2023-05-12T15:09:23.794Z,8.75
2023-05-12T15:11:51.508Z,6.83
2023-05-12T15:14:18.366Z,8.05
2023-05-12T15:16:44.932Z,8.38
2023-05-12T15:19:11.562Z,6.22
2023-05-12T15:21:38.133Z,9.10
2023-05-12T15:24:04.709Z,6.40
2023-05-12T15:26:33.789Z,6.30
2023-05-12T15:29:01.881Z,7.60
2023-05-12T15:31:29.369Z,4.65
2023-05-12T15:33:56.968Z,4.45
2023-05-12T15:36:23.528Z,7.00
2023-05-12T15:38:50.105Z,4.68
2023-05-12T15:41:16.730Z,5.18
2023-05-12T15:43:43.248Z,6.18
2023-05-12T15:46:10.929Z,5.32
2023-05-12T15:48:37.716Z,4.43
2023-05-12T15:51:04.483Z,5.53
2023-05-12T15:53:31.500Z,4.70
2023-05-12T15:56:01.766Z,6.88
2023-05-12T15:58:28.561Z,5.72
2023-05-12T16:00:55.648Z,5.30
2023-05-12T16:03:22.949Z,4.35
2023-05-12T16:05:49.810Z,3.67
2023-05-12T16:08:16.620Z,4.65
2023-05-12T16:10:43.115Z,2.70
2023-05-12T16:13:09.723Z,4.30
2023-05-12T16:15:36.378Z,4.15
2023-05-12T16:18:03.040Z,3.70
2023-05-12T16:20:29.880Z,6.07
2023-05-12T16:22:56.458Z,3.97
2023-05-12T16:25:23.054Z,3.70
2023-05-12T16:27:49.894Z,3.80
2023-05-12T16:30:19.145Z,3.53
2023-05-12T16:32:47.484Z,6.25
2023-05-12T16:35:14.426Z,4.53
2023-05-12T16:37:41.270Z,4.37
2023-05-12T16:40:09.384Z,6.20
2023-05-12T16:42:36.478Z,5.55
2023-05-12T16:45:03.176Z,4.53
2023-05-12T16:47:29.777Z,3.92
2023-05-12T16:49:58.107Z,6.37
2023-05-12T16:52:25.871Z,5.82
2023-05-12T16:54:53.128Z,5.50
2023-05-12T16:57:20.165Z,6.03
2023-05-12T16:59:48.377Z,5.35
2023-05-12T17:02:15.345Z,6.40
2023-05-12T17:04:41.961Z,6.10
2023-05-12T17:07:09.816Z,4.57
2023-05-12T17:09:36.477Z,3.80
2023-05-12T17:12:04.529Z,6.07
2023-05-12T17:14:31.347Z,4.50
2023-05-12T17:16:58.009Z,4.22
2023-05-12T17:19:24.691Z,5.10
2023-05-12T17:21:51.316Z,4.75
2023-05-12T17:24:17.890Z,6.25
2023-05-12T17:26:44.894Z,5.10
2023-05-12T17:29:11.480Z,5.93
2023-05-12T17:31:38.440Z,5.80
2023-05-12T17:34:05.022Z,5.18
2023-05-12T17:36:31.620Z,5.05
2023-05-12T17:38:58.111Z,4.00
2023-05-12T17:41:25.508Z,5.35
2023-05-12T17:43:53.806Z,4.72
2023-05-12T17:46:21.046Z,5.55
2023-05-12T17:48:47.741Z,6.25
2023-05-12T17:51:14.278Z,4.93
2023-05-12T17:53:40.843Z,6.03
2023-05-12T17:56:07.548Z,4.82
2023-05-12T17:58:34.149Z,5.45
2023-05-12T18:01:00.769Z,6.38
2023-05-12T18:03:27.419Z,4.33
2023-05-12T18:05:56.726Z,5.95
2023-05-12T18:08:23.385Z,4.50
2023-05-12T18:10:49.973Z,7.85
2023-05-12T18:13:16.548Z,5.30
2023-05-12T18:15:43.348Z,5.53
2023-05-12T18:18:10.574Z,6.43
2023-05-12T18:20:37.610Z,4.55
2023-05-12T18:23:04.340Z,4.30
2023-05-12T18:25:30.964Z,6.03
2023-05-12T18:27:57.595Z,7.23
2023-05-12T18:30:24.158Z,4.93
2023-05-12T18:32:50.950Z,7.93
2023-05-12T18:35:18.023Z,4.72
2023-05-12T18:37:44.847Z,5.25
2023-05-12T18:40:12.049Z,5.53
2023-05-12T18:42:38.739Z,4.90
2023-05-12T18:45:05.836Z,5.85
2023-05-12T18:47:33.449Z,5.22
2023-05-12T18:52:12.314Z,5.78
2023-05-12T18:54:39.925Z,6.70
2023-05-12T18:57:06.352Z,5.30
2023-05-12T18:59:32.951Z,5.43
2023-05-12T19:01:59.742Z,8.07
2023-05-12T19:04:26.631Z,5.43
2023-05-12T19:06:53.168Z,5.10
2023-05-12T19:09:19.637Z,4.57
2023-05-12T19:11:46.857Z,5.68
2023-05-12T19:14:13.488Z,4.97
2023-05-12T19:16:42.301Z,4.72
2023-05-12T19:19:08.989Z,5.47
2023-05-12T19:21:35.652Z,6.17
2023-05-12T19:24:02.834Z,8.25
2023-05-12T19:26:29.415Z,5.85
2023-05-12T19:28:55.936Z,7.85
2023-05-12T19:31:22.533Z,5.53
2023-05-12T19:33:49.057Z,6.57
2023-05-12T19:36:15.655Z,4.78
2023-05-12T19:38:44.136Z,8.57
2023-05-12T19:41:11.050Z,5.05
2023-05-12T19:43:38.109Z,6.57
2023-05-12T19:46:04.662Z,6.17
2023-05-12T19:48:31.316Z,7.40
2023-05-12T19:50:57.855Z,7.60
2023-05-12T19:53:24.429Z,6.68
2023-05-12T19:55:50.967Z,7.55
2023-05-12T19:58:17.448Z,6.80
2023-05-12T20:00:43.987Z,5.88
2023-05-12T20:03:10.652Z,5.85
2023-05-12T20:05:37.715Z,8.10
2023-05-12T20:08:04.647Z,7.10
2023-05-12T20:10:31.237Z,7.63
2023-05-12T20:12:57.872Z,6.63
2023-05-12T20:15:24.526Z,6.88
2023-05-12T20:17:51.134Z,6.78
2023-05-12T20:20:17.788Z,5.75
2023-05-12T20:22:44.581Z,9.50
2023-05-12T20:25:14.264Z,8.30
2023-05-12T20:27:40.798Z,7.20
2023-05-12T20:30:08.030Z,7.40
2023-05-12T20:32:34.569Z,6.32
2023-05-12T20:35:02.828Z,8.50
2023-05-12T20:37:29.317Z,7.32
2023-05-12T20:39:56.025Z,7.50
2023-05-12T20:42:22.594Z,7.68
2023-05-12T20:44:49.073Z,8.40
2023-05-12T20:47:15.649Z,7.57
2023-05-12T20:49:42.572Z,6.82
2023-05-12T20:52:09.175Z,6.80
2023-05-12T20:54:35.704Z,6.28
2023-05-12T20:57:04.729Z,6.85
2023-05-12T20:59:31.356Z,5.70
2023-05-12T21:01:57.967Z,6.22
2023-05-12T21:04:24.654Z,7.38
2023-05-12T21:06:53.322Z,5.95
2023-05-12T21:09:20.411Z,8.07
2023-05-12T21:11:47.241Z,5.87
2023-05-12T21:14:13.829Z,7.60
2023-05-12T21:16:40.463Z,6.93
2023-05-12T21:19:07.149Z,6.68
2023-05-12T21:21:33.819Z,5.45
2023-05-12T21:24:00.812Z,6.47
2023-05-12T21:26:27.687Z,7.03
2023-05-12T21:28:54.236Z,6.88
2023-05-12T21:31:20.791Z,7.70
2023-05-12T21:33:48.016Z,6.55
2023-05-12T21:36:14.573Z,6.03
2023-05-12T21:38:41.108Z,6.93
2023-05-12T21:41:07.841Z,8.35
2023-05-12T21:43:34.441Z,6.82
2023-05-12T21:46:05.070Z,7.63
2023-05-12T21:48:32.261Z,6.87
2023-05-12T21:51:03.130Z,7.38
2023-05-12T21:53:29.991Z,6.50
2023-05-12T21:55:56.619Z,6.80
2023-05-12T21:58:23.705Z,7.05
2023-05-12T22:00:51.454Z,8.20
2023-05-12T22:03:20.292Z,6.88
2023-05-12T22:05:47.039Z,7.32
2023-05-12T22:08:13.875Z,9.43
2023-05-12T22:10:40.464Z,7.43
2023-05-12T22:13:07.300Z,7.27
2023-05-12T22:15:34.142Z,7.10
2023-05-12T22:18:01.175Z,9.77
2023-05-12T22:20:27.918Z,6.55
2023-05-12T22:22:54.462Z,5.70
2023-05-12T22:25:21.112Z,8.07
2023-05-12T22:27:47.641Z,6.47
2023-05-12T22:30:14.447Z,7.18
2023-05-12T22:32:41.034Z,6.72
2023-05-12T22:35:08.034Z,9.20
2023-05-12T22:37:34.933Z,9.13
2023-05-12T22:40:02.117Z,8.55
2023-05-12T22:42:29.099Z,5.35
2023-05-12T22:44:57.320Z,6.95
2023-05-12T22:47:24.051Z,7.35
2023-05-12T22:49:50.756Z,6.93
2023-05-12T22:52:17.856Z,5.63
2023-05-12T22:54:44.387Z,6.97
2023-05-12T22:57:10.981Z,6.45
2023-05-12T22:59:37.534Z,7.15
2023-05-12T23:02:04.114Z,7.03
2023-05-12T23:04:30.798Z,6.55
2023-05-12T23:06:57.322Z,7.22
2023-05-12T23:09:23.827Z,6.60
2023-05-12T23:11:50.396Z,6.53
2023-05-12T23:14:17.041Z,8.27
2023-05-12T23:16:43.603Z,7.95
2023-05-12T23:19:10.204Z,7.10
2023-05-12T23:21:36.734Z,7.47
2023-05-12T23:24:03.337Z,7.22
2023-05-12T23:26:29.800Z,6.27
2023-05-12T23:28:56.391Z,8.32
2023-05-12T23:31:23.181Z,8.63
2023-05-12T23:33:49.957Z,8.27
2023-05-12T23:36:16.538Z,7.75
2023-05-12T23:38:42.983Z,6.07
2023-05-12T23:41:09.495Z,8.45
2023-05-12T23:43:36.120Z,11.13
2023-05-12T23:46:03.143Z,5.82
2023-05-12T23:48:30.220Z,6.22
2023-05-12T23:50:56.673Z,7.90
2023-05-12T23:53:23.223Z,10.98
2023-05-12T23:55:50.236Z,6.65
2023-05-12T23:58:17.108Z,7.40
